sensor_id;sensor_type;location;lat;lon;timestamp;temperature;humidity
22680;DHT22;11507;44.858;10.374;2022-09-27T00:00:38;14.10;99.90
22680;DHT22;11507;44.858;10.374;2022-09-27T00:03:06;14.20;99.90
22680;DHT22;11507;44.858;10.374;2022-09-27T00:05:32;14.30;99.90
22680;DHT22;11507;44.858;10.374;2022-09-27T00:07:58;14.40;99.90
22680;DHT22;11507;44.858;10.374;2022-09-27T00:10:24;14.40;99.90
22680;DHT22;11507;44.858;10.374;2022-09-27T00:12:50;14.60;99.90
22680;DHT22;11507;44.858;10.374;2022-09-27T00:15:16;14.60;99.90
22680;DHT22;11507;44.858;10.374;2022-09-27T00:17:42;14.70;99.90
22680;DHT22;11507;44.858;10.374;2022-09-27T00:20:09;14.70;99.90
22680;DHT22;11507;44.858;10.374;2022-09-27T00:22:35;14.80;99.90
22680;DHT22;11507;44.858;10.374;2022-09-27T00:25:01;14.80;99.90
22680;DHT22;11507;44.858;10.374;2022-09-27T00:27:30;14.80;99.90
22680;DHT22;11507;44.858;10.374;2022-09-27T00:29:56;14.80;99.90
22680;DHT22;11507;44.858;10.374;2022-09-27T00:32:22;14.80;99.90
22680;DHT22;11507;44.858;10.374;2022-09-27T00:34:47;14.80;99.90
22680;DHT22;11507;44.858;10.374;2022-09-27T00:37:13;14.80;99.90
22680;DHT22;11507;44.858;10.374;2022-09-27T00:39:39;14.80;99.90
22680;DHT22;11507;44.858;10.374;2022-09-27T00:42:09;14.80;99.90
22680;DHT22;11507;44.858;10.374;2022-09-27T00:47:28;14.80;99.90
22680;DHT22;11507;44.858;10.374;2022-09-27T00:53:07;14.80;99.90
22680;DHT22;11507;44.858;10.374;2022-09-27T00:55:31;14.80;99.90
22680;DHT22;11507;44.858;10.374;2022-09-27T00:57:59;14.70;99.90
22680;DHT22;11507;44.858;10.374;2022-09-27T01:00:26;14.70;99.90
22680;DHT22;11507;44.858;10.374;2022-09-27T01:02:54;14.70;99.90
22680;DHT22;11507;44.858;10.374;2022-09-27T01:05:23;14.70;99.90
22680;DHT22;11507;44.858;10.374;2022-09-27T01:07:49;14.60;99.90
22680;DHT22;11507;44.858;10.374;2022-09-27T01:10:16;14.60;99.90
22680;DHT22;11507;44.858;10.374;2022-09-27T01:32:02;14.30;99.90
22680;DHT22;11507;44.858;10.374;2022-09-27T01:34:47;14.30;99.90
22680;DHT22;11507;44.858;10.374;2022-09-27T01:42:47;14.20;99.90
22680;DHT22;11507;44.858;10.374;2022-09-27T01:45:27;14.10;99.90
22680;DHT22;11507;44.858;10.374;2022-09-27T01:48:21;14.10;99.90
22680;DHT22;11507;44.858;10.374;2022-09-27T01:51:03;14.10;99.90
22680;DHT22;11507;44.858;10.374;2022-09-27T01:53:36;14.00;99.90
22680;DHT22;11507;44.858;10.374;2022-09-27T01:56:42;14.00;99.90
22680;DHT22;11507;44.858;10.374;2022-09-27T01:59:23;14.00;99.90
22680;DHT22;11507;44.858;10.374;2022-09-27T02:02:10;13.90;99.90
22680;DHT22;11507;44.858;10.374;2022-09-27T02:05:02;13.90;99.90
22680;DHT22;11507;44.858;10.374;2022-09-27T02:07:38;13.80;99.90
22680;DHT22;11507;44.858;10.374;2022-09-27T02:10:27;13.70;99.90
22680;DHT22;11507;44.858;10.374;2022-09-27T02:13:19;13.60;99.90
22680;DHT22;11507;44.858;10.374;2022-09-27T02:16:29;13.60;99.90
22680;DHT22;11507;44.858;10.374;2022-09-27T02:22:15;13.50;99.90
22680;DHT22;11507;44.858;10.374;2022-09-27T02:24:47;13.50;99.90
22680;DHT22;11507;44.858;10.374;2022-09-27T02:27:21;13.60;99.90
22680;DHT22;11507;44.858;10.374;2022-09-27T02:29:55;13.60;99.90
22680;DHT22;11507;44.858;10.374;2022-09-27T02:32:23;13.60;99.90
22680;DHT22;11507;44.858;10.374;2022-09-27T02:34:50;13.70;99.90
22680;DHT22;11507;44.858;10.374;2022-09-27T02:37:17;13.70;99.90
22680;DHT22;11507;44.858;10.374;2022-09-27T02:39:42;13.80;99.90
22680;DHT22;11507;44.858;10.374;2022-09-27T02:42:09;13.80;99.90
22680;DHT22;11507;44.858;10.374;2022-09-27T02:44:38;13.80;99.90
22680;DHT22;11507;44.858;10.374;2022-09-27T02:47:27;13.90;99.90
22680;DHT22;11507;44.858;10.374;2022-09-27T03:04:51;13.70;99.90
22680;DHT22;11507;44.858;10.374;2022-09-27T03:07:18;13.60;99.90
22680;DHT22;11507;44.858;10.374;2022-09-27T03:09:48;13.60;99.90
22680;DHT22;11507;44.858;10.374;2022-09-27T03:12:15;13.50;99.90
22680;DHT22;11507;44.858;10.374;2022-09-27T03:15:00;13.40;99.90
22680;DHT22;11507;44.858;10.374;2022-09-27T03:17:45;13.40;99.90
22680;DHT22;11507;44.858;10.374;2022-09-27T03:20:37;13.30;99.90
22680;DHT22;11507;44.858;10.374;2022-09-27T03:23:07;13.30;99.90
22680;DHT22;11507;44.858;10.374;2022-09-27T03:25:33;13.30;99.90
22680;DHT22;11507;44.858;10.374;2022-09-27T03:28:00;13.30;99.90
22680;DHT22;11507;44.858;10.374;2022-09-27T03:30:25;13.30;99.90
22680;DHT22;11507;44.858;10.374;2022-09-27T03:32:52;13.30;99.90
22680;DHT22;11507;44.858;10.374;2022-09-27T03:35:47;13.30;99.90
22680;DHT22;11507;44.858;10.374;2022-09-27T03:38:13;13.30;99.90
22680;DHT22;11507;44.858;10.374;2022-09-27T03:40:39;13.30;99.90
22680;DHT22;11507;44.858;10.374;2022-09-27T03:43:06;13.30;99.90
22680;DHT22;11507;44.858;10.374;2022-09-27T03:45:33;13.40;99.90
22680;DHT22;11507;44.858;10.374;2022-09-27T03:48:01;13.40;99.90
22680;DHT22;11507;44.858;10.374;2022-09-27T03:50:27;13.40;99.90
22680;DHT22;11507;44.858;10.374;2022-09-27T03:52:53;13.40;99.90
22680;DHT22;11507;44.858;10.374;2022-09-27T03:55:20;13.40;99.90
22680;DHT22;11507;44.858;10.374;2022-09-27T03:57:46;13.40;99.90
22680;DHT22;11507;44.858;10.374;2022-09-27T04:00:14;13.30;99.90
22680;DHT22;11507;44.858;10.374;2022-09-27T04:02:40;13.30;99.90
22680;DHT22;11507;44.858;10.374;2022-09-27T04:05:25;13.20;99.90
22680;DHT22;11507;44.858;10.374;2022-09-27T04:07:58;13.20;99.90
22680;DHT22;11507;44.858;10.374;2022-09-27T04:10:25;13.10;99.90
22680;DHT22;11507;44.858;10.374;2022-09-27T04:12:51;13.00;99.90
22680;DHT22;11507;44.858;10.374;2022-09-27T04:15:19;12.90;99.90
22680;DHT22;11507;44.858;10.374;2022-09-27T04:17:48;12.80;99.90
22680;DHT22;11507;44.858;10.374;2022-09-27T04:20:33;12.70;99.90
22680;DHT22;11507;44.858;10.374;2022-09-27T04:23:03;12.60;99.90
22680;DHT22;11507;44.858;10.374;2022-09-27T04:25:30;12.60;99.90
22680;DHT22;11507;44.858;10.374;2022-09-27T04:28:05;12.50;99.90
22680;DHT22;11507;44.858;10.374;2022-09-27T04:30:32;12.40;99.90
22680;DHT22;11507;44.858;10.374;2022-09-27T04:33:04;12.40;99.90
22680;DHT22;11507;44.858;10.374;2022-09-27T04:35:50;12.30;99.90
22680;DHT22;11507;44.858;10.374;2022-09-27T04:38:38;12.30;99.90
22680;DHT22;11507;44.858;10.374;2022-09-27T04:41:06;12.20;99.90
22680;DHT22;11507;44.858;10.374;2022-09-27T04:43:35;12.20;99.90
22680;DHT22;11507;44.858;10.374;2022-09-27T04:46:02;12.20;99.90
22680;DHT22;11507;44.858;10.374;2022-09-27T04:48:28;12.20;99.90
22680;DHT22;11507;44.858;10.374;2022-09-27T04:51:01;12.10;99.90
22680;DHT22;11507;44.858;10.374;2022-09-27T04:53:29;12.10;99.90
22680;DHT22;11507;44.858;10.374;2022-09-27T04:55:56;12.20;99.90
22680;DHT22;11507;44.858;10.374;2022-09-27T04:58:24;12.10;99.90
22680;DHT22;11507;44.858;10.374;2022-09-27T05:00:50;12.10;99.90
22680;DHT22;11507;44.858;10.374;2022-09-27T05:03:52;12.10;99.90
22680;DHT22;11507;44.858;10.374;2022-09-27T05:06:18;12.10;99.90
22680;DHT22;11507;44.858;10.374;2022-09-27T05:08:44;12.10;99.90
22680;DHT22;11507;44.858;10.374;2022-09-27T05:11:24;12.10;99.90
22680;DHT22;11507;44.858;10.374;2022-09-27T05:14:11;12.10;99.90
22680;DHT22;11507;44.858;10.374;2022-09-27T05:16:48;12.10;99.90
22680;DHT22;11507;44.858;10.374;2022-09-27T05:19:26;12.10;99.90
22680;DHT22;11507;44.858;10.374;2022-09-27T05:22:19;12.10;99.90
22680;DHT22;11507;44.858;10.374;2022-09-27T05:24:45;12.10;99.90
22680;DHT22;11507;44.858;10.374;2022-09-27T05:27:13;12.10;99.90
22680;DHT22;11507;44.858;10.374;2022-09-27T05:29:40;12.00;99.90
22680;DHT22;11507;44.858;10.374;2022-09-27T05:32:13;12.00;99.90
22680;DHT22;11507;44.858;10.374;2022-09-27T05:34:39;12.00;99.90
22680;DHT22;11507;44.858;10.374;2022-09-27T05:37:06;12.00;99.90
22680;DHT22;11507;44.858;10.374;2022-09-27T05:39:36;12.00;99.90
22680;DHT22;11507;44.858;10.374;2022-09-27T05:42:02;12.00;99.90
22680;DHT22;11507;44.858;10.374;2022-09-27T05:44:29;11.90;99.90
22680;DHT22;11507;44.858;10.374;2022-09-27T05:47:02;11.90;99.90
22680;DHT22;11507;44.858;10.374;2022-09-27T05:49:30;12.00;99.90
22680;DHT22;11507;44.858;10.374;2022-09-27T05:51:57;12.00;99.90
22680;DHT22;11507;44.858;10.374;2022-09-27T05:54:26;12.00;99.90
22680;DHT22;11507;44.858;10.374;2022-09-27T05:56:58;12.10;99.90
22680;DHT22;11507;44.858;10.374;2022-09-27T05:59:38;12.30;99.90
22680;DHT22;11507;44.858;10.374;2022-09-27T06:02:18;12.30;99.90
22680;DHT22;11507;44.858;10.374;2022-09-27T06:05:16;12.40;99.90
22680;DHT22;11507;44.858;10.374;2022-09-27T06:08:07;12.60;99.90
22680;DHT22;11507;44.858;10.374;2022-09-27T06:10:40;12.80;99.90
22680;DHT22;11507;44.858;10.374;2022-09-27T06:13:10;13.00;99.90
22680;DHT22;11507;44.858;10.374;2022-09-27T06:15:42;13.10;99.90
22680;DHT22;11507;44.858;10.374;2022-09-27T06:18:10;13.30;99.90
22680;DHT22;11507;44.858;10.374;2022-09-27T06:20:40;13.50;99.90
22680;DHT22;11507;44.858;10.374;2022-09-27T06:23:10;13.60;99.90
22680;DHT22;11507;44.858;10.374;2022-09-27T06:25:37;13.80;99.90
22680;DHT22;11507;44.858;10.374;2022-09-27T06:28:20;14.00;99.90
22680;DHT22;11507;44.858;10.374;2022-09-27T06:30:49;14.20;99.90
22680;DHT22;11507;44.858;10.374;2022-09-27T06:33:38;14.40;99.90
22680;DHT22;11507;44.858;10.374;2022-09-27T06:36:06;14.60;99.90
22680;DHT22;11507;44.858;10.374;2022-09-27T06:38:35;14.70;99.90
22680;DHT22;11507;44.858;10.374;2022-09-27T06:41:26;14.90;99.90
22680;DHT22;11507;44.858;10.374;2022-09-27T06:44:04;15.30;99.90
22680;DHT22;11507;44.858;10.374;2022-09-27T06:46:50;15.70;99.90
22680;DHT22;11507;44.858;10.374;2022-09-27T06:49:29;15.90;99.90
22680;DHT22;11507;44.858;10.374;2022-09-27T06:51:56;16.00;99.90
22680;DHT22;11507;44.858;10.374;2022-09-27T06:54:22;16.00;99.90
22680;DHT22;11507;44.858;10.374;2022-09-27T06:56:48;15.90;99.90
22680;DHT22;11507;44.858;10.374;2022-09-27T06:59:15;15.90;99.90
22680;DHT22;11507;44.858;10.374;2022-09-27T07:02:19;15.90;99.90
22680;DHT22;11507;44.858;10.374;2022-09-27T07:05:09;15.80;99.90
22680;DHT22;11507;44.858;10.374;2022-09-27T07:08:01;15.80;99.90
22680;DHT22;11507;44.858;10.374;2022-09-27T07:10:30;15.90;99.90
22680;DHT22;11507;44.858;10.374;2022-09-27T07:13:06;16.10;99.90
22680;DHT22;11507;44.858;10.374;2022-09-27T07:15:34;16.30;99.90
22680;DHT22;11507;44.858;10.374;2022-09-27T07:18:07;16.50;99.90
22680;DHT22;11507;44.858;10.374;2022-09-27T07:20:34;16.70;99.90
22680;DHT22;11507;44.858;10.374;2022-09-27T07:23:04;17.00;99.90
22680;DHT22;11507;44.858;10.374;2022-09-27T07:25:32;17.10;99.90
22680;DHT22;11507;44.858;10.374;2022-09-27T07:28:02;17.30;99.90
22680;DHT22;11507;44.858;10.374;2022-09-27T07:30:29;17.50;99.90
22680;DHT22;11507;44.858;10.374;2022-09-27T07:32:58;17.70;99.90
22680;DHT22;11507;44.858;10.374;2022-09-27T07:35:26;17.90;99.90
22680;DHT22;11507;44.858;10.374;2022-09-27T07:37:55;18.20;99.90
22680;DHT22;11507;44.858;10.374;2022-09-27T07:40:23;18.20;99.90
22680;DHT22;11507;44.858;10.374;2022-09-27T07:42:56;18.30;99.90
22680;DHT22;11507;44.858;10.374;2022-09-27T07:45:24;18.50;99.90
22680;DHT22;11507;44.858;10.374;2022-09-27T07:48:11;18.70;99.90
22680;DHT22;11507;44.858;10.374;2022-09-27T07:50:56;19.00;99.90
22680;DHT22;11507;44.858;10.374;2022-09-27T07:53:45;19.20;99.90
22680;DHT22;11507;44.858;10.374;2022-09-27T07:56:29;19.50;99.90
22680;DHT22;11507;44.858;10.374;2022-09-27T07:58:56;19.60;99.90
22680;DHT22;11507;44.858;10.374;2022-09-27T08:01:23;19.50;99.90
22680;DHT22;11507;44.858;10.374;2022-09-27T08:03:49;19.40;99.90
22680;DHT22;11507;44.858;10.374;2022-09-27T08:06:15;19.30;99.90
22680;DHT22;11507;44.858;10.374;2022-09-27T08:08:42;19.40;99.90
22680;DHT22;11507;44.858;10.374;2022-09-27T08:11:15;19.60;99.90
22680;DHT22;11507;44.858;10.374;2022-09-27T08:13:43;19.80;99.90
22680;DHT22;11507;44.858;10.374;2022-09-27T08:16:10;19.90;99.90
22680;DHT22;11507;44.858;10.374;2022-09-27T08:18:55;20.00;99.90
22680;DHT22;11507;44.858;10.374;2022-09-27T08:21:38;20.20;99.90
22680;DHT22;11507;44.858;10.374;2022-09-27T08:24:21;20.40;99.90
22680;DHT22;11507;44.858;10.374;2022-09-27T08:27:01;20.70;99.90
22680;DHT22;11507;44.858;10.374;2022-09-27T08:29:49;20.80;99.90
22680;DHT22;11507;44.858;10.374;2022-09-27T08:32:16;21.10;99.90
22680;DHT22;11507;44.858;10.374;2022-09-27T08:34:43;21.30;99.90
22680;DHT22;11507;44.858;10.374;2022-09-27T08:37:09;21.60;99.90
22680;DHT22;11507;44.858;10.374;2022-09-27T08:39:37;22.10;99.90
22680;DHT22;11507;44.858;10.374;2022-09-27T08:48:04;22.90;99.90
22680;DHT22;11507;44.858;10.374;2022-09-27T08:50:31;23.50;99.90
22680;DHT22;11507;44.858;10.374;2022-09-27T08:53:22;23.90;99.90
22680;DHT22;11507;44.858;10.374;2022-09-27T08:55:54;24.20;99.90
22680;DHT22;11507;44.858;10.374;2022-09-27T08:58:26;24.40;99.90
22680;DHT22;11507;44.858;10.374;2022-09-27T09:00:56;24.60;99.90
22680;DHT22;11507;44.858;10.374;2022-09-27T09:03:30;24.60;99.90
22680;DHT22;11507;44.858;10.374;2022-09-27T09:20:15;26.30;99.90
22680;DHT22;11507;44.858;10.374;2022-09-27T09:28:47;27.80;95.10
22680;DHT22;11507;44.858;10.374;2022-09-27T09:31:43;27.90;93.50
22680;DHT22;11507;44.858;10.374;2022-09-27T09:42:59;29.70;90.80
22680;DHT22;11507;44.858;10.374;2022-09-27T09:45:37;30.20;90.50
22680;DHT22;11507;44.858;10.374;2022-09-27T09:48:48;30.30;86.30
22680;DHT22;11507;44.858;10.374;2022-09-27T09:51:25;30.00;82.40
22680;DHT22;11507;44.858;10.374;2022-09-27T09:54:00;29.90;85.00
22680;DHT22;11507;44.858;10.374;2022-09-27T09:56:39;29.60;83.30
22680;DHT22;11507;44.858;10.374;2022-09-27T09:59:17;29.50;82.50
22680;DHT22;11507;44.858;10.374;2022-09-27T10:01:47;29.40;82.00
22680;DHT22;11507;44.858;10.374;2022-09-27T10:04:24;29.50;88.10
22680;DHT22;11507;44.858;10.374;2022-09-27T10:06:55;30.00;83.30
22680;DHT22;11507;44.858;10.374;2022-09-27T10:09:26;30.90;84.70
22680;DHT22;11507;44.858;10.374;2022-09-27T10:12:11;31.50;84.90
22680;DHT22;11507;44.858;10.374;2022-09-27T10:14:39;32.40;81.00
22680;DHT22;11507;44.858;10.374;2022-09-27T10:17:10;32.70;76.70
22680;DHT22;11507;44.858;10.374;2022-09-27T10:19:40;33.00;79.40
22680;DHT22;11507;44.858;10.374;2022-09-27T10:22:21;33.40;72.90
22680;DHT22;11507;44.858;10.374;2022-09-27T10:24:57;33.60;74.80
22680;DHT22;11507;44.858;10.374;2022-09-27T10:27:50;33.90;69.50
22680;DHT22;11507;44.858;10.374;2022-09-27T10:30:31;34.00;68.30
22680;DHT22;11507;44.858;10.374;2022-09-27T10:33:13;33.60;68.10
22680;DHT22;11507;44.858;10.374;2022-09-27T10:35:43;33.30;65.80
22680;DHT22;11507;44.858;10.374;2022-09-27T10:38:30;33.20;68.30
22680;DHT22;11507;44.858;10.374;2022-09-27T10:46:48;34.50;69.10
22680;DHT22;11507;44.858;10.374;2022-09-27T10:49:34;35.20;67.90
22680;DHT22;11507;44.858;10.374;2022-09-27T10:52:12;36.00;66.20
22680;DHT22;11507;44.858;10.374;2022-09-27T10:54:39;36.40;63.00
22680;DHT22;11507;44.858;10.374;2022-09-27T10:59:40;37.10;60.20
22680;DHT22;11507;44.858;10.374;2022-09-27T11:02:22;37.30;58.70
22680;DHT22;11507;44.858;10.374;2022-09-27T11:05:29;37.60;61.00
22680;DHT22;11507;44.858;10.374;2022-09-27T11:07:56;38.10;58.90
22680;DHT22;11507;44.858;10.374;2022-09-27T11:10:36;38.50;57.60
22680;DHT22;11507;44.858;10.374;2022-09-27T11:13:16;38.30;51.40
22680;DHT22;11507;44.858;10.374;2022-09-27T11:30:16;37.20;55.60
22680;DHT22;11507;44.858;10.374;2022-09-27T11:46:34;39.40;51.00
22680;DHT22;11507;44.858;10.374;2022-09-27T11:49:26;39.50;50.10
22680;DHT22;11507;44.858;10.374;2022-09-27T11:57:35;39.50;44.60
22680;DHT22;11507;44.858;10.374;2022-09-27T12:00:20;38.50;47.20
22680;DHT22;11507;44.858;10.374;2022-09-27T12:03:19;38.30;46.30
22680;DHT22;11507;44.858;10.374;2022-09-27T12:06:09;37.90;46.20
22680;DHT22;11507;44.858;10.374;2022-09-27T12:09:03;36.20;47.90
22680;DHT22;11507;44.858;10.374;2022-09-27T12:14:20;33.90;52.60
22680;DHT22;11507;44.858;10.374;2022-09-27T12:16:51;33.90;55.00
22680;DHT22;11507;44.858;10.374;2022-09-27T12:19:29;34.40;53.40
22680;DHT22;11507;44.858;10.374;2022-09-27T12:22:05;35.50;51.30
22680;DHT22;11507;44.858;10.374;2022-09-27T12:24:36;36.30;50.80
22680;DHT22;11507;44.858;10.374;2022-09-27T12:30:12;36.60;50.80
22680;DHT22;11507;44.858;10.374;2022-09-27T12:33:06;36.90;49.50
22680;DHT22;11507;44.858;10.374;2022-09-27T12:35:41;37.30;49.00
22680;DHT22;11507;44.858;10.374;2022-09-27T12:38:43;38.10;48.00
22680;DHT22;11507;44.858;10.374;2022-09-27T12:41:13;38.20;43.70
22680;DHT22;11507;44.858;10.374;2022-09-27T12:43:53;38.10;46.30
22680;DHT22;11507;44.858;10.374;2022-09-27T12:52:04;35.50;48.80
22680;DHT22;11507;44.858;10.374;2022-09-27T13:00:21;38.10;44.90
22680;DHT22;11507;44.858;10.374;2022-09-27T13:03:29;38.30;44.20
22680;DHT22;11507;44.858;10.374;2022-09-27T13:14:31;36.80;46.30
22680;DHT22;11507;44.858;10.374;2022-09-27T13:17:01;37.30;47.40
22680;DHT22;11507;44.858;10.374;2022-09-27T13:19:43;37.90;44.30
22680;DHT22;11507;44.858;10.374;2022-09-27T13:22:37;38.50;43.60
22680;DHT22;11507;44.858;10.374;2022-09-27T13:25:56;38.70;43.40
22680;DHT22;11507;44.858;10.374;2022-09-27T13:34:38;38.30;43.40
22680;DHT22;11507;44.858;10.374;2022-09-27T13:37:29;37.10;42.90
22680;DHT22;11507;44.858;10.374;2022-09-27T13:40:30;36.80;44.20
22680;DHT22;11507;44.858;10.374;2022-09-27T13:46:00;35.70;44.50
22680;DHT22;11507;44.858;10.374;2022-09-27T13:48:53;35.30;45.20
22680;DHT22;11507;44.858;10.374;2022-09-27T13:54:34;33.80;44.40
22680;DHT22;11507;44.858;10.374;2022-09-27T13:56:53;33.30;46.40
22680;DHT22;11507;44.858;10.374;2022-09-27T13:59:44;32.70;47.20
22680;DHT22;11507;44.858;10.374;2022-09-27T14:02:41;32.10;47.70
22680;DHT22;11507;44.858;10.374;2022-09-27T14:05:18;30.90;54.00
22680;DHT22;11507;44.858;10.374;2022-09-27T14:07:46;29.90;58.00
22680;DHT22;11507;44.858;10.374;2022-09-27T14:10:18;29.30;58.10
22680;DHT22;11507;44.858;10.374;2022-09-27T14:12:50;28.70;61.30
22680;DHT22;11507;44.858;10.374;2022-09-27T14:15:20;28.40;61.70
22680;DHT22;11507;44.858;10.374;2022-09-27T14:17:47;28.20;61.90
22680;DHT22;11507;44.858;10.374;2022-09-27T14:20:49;28.20;63.20
22680;DHT22;11507;44.858;10.374;2022-09-27T14:23:39;28.20;65.50
22680;DHT22;11507;44.858;10.374;2022-09-27T14:26:21;28.30;62.50
22680;DHT22;11507;44.858;10.374;2022-09-27T14:28:48;28.40;59.20
22680;DHT22;11507;44.858;10.374;2022-09-27T14:31:26;28.50;61.50
22680;DHT22;11507;44.858;10.374;2022-09-27T14:34:07;28.60;61.10
22680;DHT22;11507;44.858;10.374;2022-09-27T14:36:36;28.10;62.30
22680;DHT22;11507;44.858;10.374;2022-09-27T14:39:34;27.80;63.30
22680;DHT22;11507;44.858;10.374;2022-09-27T14:42:23;27.50;66.60
22680;DHT22;11507;44.858;10.374;2022-09-27T14:45:00;27.60;65.30
22680;DHT22;11507;44.858;10.374;2022-09-27T14:47:27;27.90;63.30
22680;DHT22;11507;44.858;10.374;2022-09-27T14:50:00;28.00;65.70
22680;DHT22;11507;44.858;10.374;2022-09-27T14:52:31;28.40;64.00
22680;DHT22;11507;44.858;10.374;2022-09-27T14:55:04;28.80;63.00
22680;DHT22;11507;44.858;10.374;2022-09-27T14:57:31;29.50;62.50
22680;DHT22;11507;44.858;10.374;2022-09-27T15:00:14;30.30;61.40
22680;DHT22;11507;44.858;10.374;2022-09-27T15:02:41;30.90;57.90
22680;DHT22;11507;44.858;10.374;2022-09-27T15:05:15;31.00;55.50
22680;DHT22;11507;44.858;10.374;2022-09-27T15:07:45;30.80;56.80
22680;DHT22;11507;44.858;10.374;2022-09-27T15:10:20;30.60;55.40
22680;DHT22;11507;44.858;10.374;2022-09-27T15:12:49;30.50;56.00
22680;DHT22;11507;44.858;10.374;2022-09-27T15:15:20;29.90;56.80
22680;DHT22;11507;44.858;10.374;2022-09-27T15:17:46;29.10;57.20
22680;DHT22;11507;44.858;10.374;2022-09-27T15:22:50;28.40;58.80
22680;DHT22;11507;44.858;10.374;2022-09-27T15:27:53;26.70;61.20
22680;DHT22;11507;44.858;10.374;2022-09-27T15:30:26;26.20;63.20
22680;DHT22;11507;44.858;10.374;2022-09-27T15:32:54;25.80;65.90
22680;DHT22;11507;44.858;10.374;2022-09-27T15:35:35;25.30;66.80
22680;DHT22;11507;44.858;10.374;2022-09-27T15:38:23;24.90;70.20
22680;DHT22;11507;44.858;10.374;2022-09-27T15:43:30;24.20;69.40
22680;DHT22;11507;44.858;10.374;2022-09-27T15:45:59;24.00;70.90
22680;DHT22;11507;44.858;10.374;2022-09-27T15:48:28;23.70;71.30
22680;DHT22;11507;44.858;10.374;2022-09-27T15:50:54;23.50;73.80
22680;DHT22;11507;44.858;10.374;2022-09-27T15:56:04;23.20;75.20
22680;DHT22;11507;44.858;10.374;2022-09-27T15:58:33;23.10;76.40
22680;DHT22;11507;44.858;10.374;2022-09-27T16:01:01;22.90;76.30
22680;DHT22;11507;44.858;10.374;2022-09-27T16:03:28;22.70;77.00
22680;DHT22;11507;44.858;10.374;2022-09-27T16:05:55;22.60;76.50
22680;DHT22;11507;44.858;10.374;2022-09-27T16:08:25;22.40;79.30
22680;DHT22;11507;44.858;10.374;2022-09-27T16:10:54;22.30;80.10
22680;DHT22;11507;44.858;10.374;2022-09-27T16:13:21;22.30;79.30
22680;DHT22;11507;44.858;10.374;2022-09-27T16:15:47;22.20;79.30
22680;DHT22;11507;44.858;10.374;2022-09-27T16:18:14;22.10;80.80
22680;DHT22;11507;44.858;10.374;2022-09-27T16:20:40;22.00;83.30
22680;DHT22;11507;44.858;10.374;2022-09-27T16:23:06;21.90;83.10
22680;DHT22;11507;44.858;10.374;2022-09-27T16:25:32;21.70;83.20
22680;DHT22;11507;44.858;10.374;2022-09-27T16:27:59;21.70;86.20
22680;DHT22;11507;44.858;10.374;2022-09-27T16:30:26;21.50;87.40
22680;DHT22;11507;44.858;10.374;2022-09-27T16:32:53;21.40;90.10
22680;DHT22;11507;44.858;10.374;2022-09-27T16:35:20;21.20;90.50
22680;DHT22;11507;44.858;10.374;2022-09-27T16:37:46;21.10;91.10
22680;DHT22;11507;44.858;10.374;2022-09-27T16:40:13;21.00;92.10
22680;DHT22;11507;44.858;10.374;2022-09-27T16:42:40;20.80;93.30
22680;DHT22;11507;44.858;10.374;2022-09-27T16:45:07;20.70;93.90
22680;DHT22;11507;44.858;10.374;2022-09-27T16:47:33;20.70;93.90
22680;DHT22;11507;44.858;10.374;2022-09-27T16:50:00;20.60;95.00
22680;DHT22;11507;44.858;10.374;2022-09-27T16:52:44;20.60;96.10
22680;DHT22;11507;44.858;10.374;2022-09-27T16:55:15;20.50;96.70
22680;DHT22;11507;44.858;10.374;2022-09-27T16:57:51;20.50;96.70
22680;DHT22;11507;44.858;10.374;2022-09-27T17:00:17;20.40;97.10
22680;DHT22;11507;44.858;10.374;2022-09-27T17:02:46;20.40;97.30
22680;DHT22;11507;44.858;10.374;2022-09-27T17:05:13;20.40;97.80
22680;DHT22;11507;44.858;10.374;2022-09-27T17:07:39;20.30;98.30
22680;DHT22;11507;44.858;10.374;2022-09-27T17:10:06;20.20;98.20
22680;DHT22;11507;44.858;10.374;2022-09-27T17:12:33;20.20;98.50
22680;DHT22;11507;44.858;10.374;2022-09-27T17:14:59;20.10;98.70
22680;DHT22;11507;44.858;10.374;2022-09-27T17:17:24;20.10;98.70
22680;DHT22;11507;44.858;10.374;2022-09-27T17:19:51;20.00;98.60
22680;DHT22;11507;44.858;10.374;2022-09-27T17:22:17;19.90;98.20
22680;DHT22;11507;44.858;10.374;2022-09-27T17:24:43;19.90;99.20
22680;DHT22;11507;44.858;10.374;2022-09-27T17:27:10;19.90;99.50
22680;DHT22;11507;44.858;10.374;2022-09-27T17:29:36;19.80;99.90
22680;DHT22;11507;44.858;10.374;2022-09-27T17:32:03;19.70;99.90
22680;DHT22;11507;44.858;10.374;2022-09-27T17:34:36;19.60;99.90
22680;DHT22;11507;44.858;10.374;2022-09-27T17:37:09;19.60;99.90
22680;DHT22;11507;44.858;10.374;2022-09-27T17:39:38;19.50;99.90
22680;DHT22;11507;44.858;10.374;2022-09-27T17:42:04;19.40;99.90
22680;DHT22;11507;44.858;10.374;2022-09-27T17:44:31;19.40;99.90
22680;DHT22;11507;44.858;10.374;2022-09-27T17:46:57;19.40;99.90
22680;DHT22;11507;44.858;10.374;2022-09-27T17:49:41;19.40;99.90
22680;DHT22;11507;44.858;10.374;2022-09-27T17:52:42;19.30;99.90
22680;DHT22;11507;44.858;10.374;2022-09-27T17:55:08;19.10;99.90
22680;DHT22;11507;44.858;10.374;2022-09-27T17:57:34;19.10;99.90
22680;DHT22;11507;44.858;10.374;2022-09-27T18:00:00;19.10;99.90
22680;DHT22;11507;44.858;10.374;2022-09-27T18:02:26;19.00;99.90
22680;DHT22;11507;44.858;10.374;2022-09-27T18:04:52;19.00;99.90
22680;DHT22;11507;44.858;10.374;2022-09-27T18:07:18;18.90;99.90
22680;DHT22;11507;44.858;10.374;2022-09-27T18:09:44;18.90;99.90
22680;DHT22;11507;44.858;10.374;2022-09-27T18:12:11;18.80;99.90
22680;DHT22;11507;44.858;10.374;2022-09-27T18:14:38;18.80;99.90
22680;DHT22;11507;44.858;10.374;2022-09-27T18:17:04;18.80;99.90
22680;DHT22;11507;44.858;10.374;2022-09-27T18:19:31;18.70;99.90
22680;DHT22;11507;44.858;10.374;2022-09-27T18:21:57;18.70;99.90
22680;DHT22;11507;44.858;10.374;2022-09-27T18:24:25;18.70;99.90
22680;DHT22;11507;44.858;10.374;2022-09-27T18:26:51;18.60;99.90
22680;DHT22;11507;44.858;10.374;2022-09-27T18:29:19;18.60;99.90
22680;DHT22;11507;44.858;10.374;2022-09-27T18:31:45;18.60;99.90
22680;DHT22;11507;44.858;10.374;2022-09-27T18:34:13;18.60;99.90
22680;DHT22;11507;44.858;10.374;2022-09-27T18:36:38;18.50;99.90
22680;DHT22;11507;44.858;10.374;2022-09-27T18:39:12;18.60;99.90
22680;DHT22;11507;44.858;10.374;2022-09-27T18:41:39;18.50;99.90
22680;DHT22;11507;44.858;10.374;2022-09-27T18:44:05;18.50;99.90
22680;DHT22;11507;44.858;10.374;2022-09-27T18:46:34;18.40;99.90
22680;DHT22;11507;44.858;10.374;2022-09-27T18:49:04;18.40;99.90